Time;durP1;ratioP1;P1;durP2;ratioP2;P2;SDS_P1;SDS_P2;PMS_P1;PMS_P2;Temp;Humidity;BMP_temperature;BMP_pressure;BME280_temperature;BME280_humidity;BME280_pressure;Samples;Min_cycle;Max_cycle;Signal;HPM_P1;HPM_P2
2022/06/04 00:00:32;;;;;;;11.85;8.23;;;;;;;;;;5067930;28;20102;-58
2022/06/04 00:02:57;;;;;;;9.95;7.47;;;;;;;;;;5069159;28;20115;-58
2022/06/04 00:05:34;;;;;;;12.48;8.27;;;;;;;;;;5069228;28;20114;-58
2022/06/04 00:08:01;;;;;;;12.88;8.20;;;;;;;;;;5065308;28;20032;-57
2022/06/04 00:16:03;;;;;;;13.52;8.65;;;;;;;;;;5063510;28;20063;-57
2022/06/04 00:18:29;;;;;;;12.10;8.68;;;;;;;;;;5064043;28;20100;-57
2022/06/04 00:20:55;;;;;;;12.63;8.40;;;;;;;;;;5067211;28;20131;-57
2022/06/04 00:23:22;;;;;;;10.90;7.95;;;;;;;;;;5055380;28;20044;-57
2022/06/04 00:25:50;;;;;;;10.98;8.35;;;;;;;;;;5057659;28;20036;-57
2022/06/04 00:28:18;;;;;;;13.13;9.10;;;;;;;;;;5065689;28;20054;-56
2022/06/04 00:30:44;;;;;;;11.95;8.05;;;;;;;;;;5061440;28;20067;-56
2022/06/04 00:33:10;;;;;;;13.30;8.80;;;;;;;;;;5067607;28;20132;-56
2022/06/04 00:35:36;;;;;;;10.90;7.78;;;;;;;;;;5066667;28;20452;-57
2022/06/04 00:38:03;;;;;;;10.18;7.95;;;;;;;;;;5068165;28;20034;-57
2022/06/04 00:40:53;;;;;;;11.65;7.53;;;;;;;;;;5068719;28;20386;-57
2022/06/04 00:43:19;;;;;;;14.88;7.43;;;;;;;;;;5060546;28;20025;-57
2022/06/04 00:46:22;;;;;;;10.15;7.50;;;;;;;;;;5061674;28;20044;-57
2022/06/04 00:48:48;;;;;;;11.60;7.65;;;;;;;;;;5070102;28;20025;-57
2022/06/04 00:51:13;;;;;;;10.38;7.30;;;;;;;;;;5064721;28;20051;-58
2022/06/04 00:53:41;;;;;;;9.30;7.22;;;;;;;;;;5068251;28;20048;-58
2022/06/04 00:56:25;;;;;;;7.93;6.78;;;;;;;;;;5069734;28;20570;-58
2022/06/04 00:59:05;;;;;;;13.30;7.90;;;;;;;;;;5065393;28;20047;-57
2022/06/04 01:01:57;;;;;;;8.70;7.05;;;;;;;;;;5062691;28;20074;-58
2022/06/04 01:04:50;;;;;;;9.27;7.32;;;;;;;;;;5059575;28;20059;-57
2022/06/04 01:07:55;;;;;;;8.13;6.55;;;;;;;;;;5063258;28;20032;-57
2022/06/04 01:10:39;;;;;;;9.07;7.22;;;;;;;;;;5061998;28;20028;-57
2022/06/04 01:13:41;;;;;;;10.18;6.97;;;;;;;;;;5063945;28;20376;-57
2022/06/04 01:16:09;;;;;;;10.75;6.95;;;;;;;;;;5061326;28;20020;-57
2022/06/04 01:19:16;;;;;;;9.55;7.00;;;;;;;;;;5056114;28;20119;-57
2022/06/04 01:21:54;;;;;;;10.85;7.05;;;;;;;;;;5043693;28;20423;-57
2022/06/04 01:24:48;;;;;;;10.68;6.45;;;;;;;;;;5062192;28;20581;-57
2022/06/04 01:27:16;;;;;;;9.40;6.80;;;;;;;;;;5050320;28;20056;-57
2022/06/04 01:29:51;;;;;;;10.27;6.32;;;;;;;;;;5069170;28;20093;-57
2022/06/04 01:32:40;;;;;;;11.55;6.93;;;;;;;;;;5062281;28;20039;-57
2022/06/04 01:35:27;;;;;;;9.20;6.72;;;;;;;;;;5059789;28;20029;-57
2022/06/04 01:38:01;;;;;;;8.80;6.88;;;;;;;;;;5067860;28;20043;-57
2022/06/04 01:43:29;;;;;;;11.10;6.78;;;;;;;;;;5070282;28;20367;-57
2022/06/04 01:45:58;;;;;;;8.35;6.30;;;;;;;;;;5062339;28;20041;-58
2022/06/04 01:48:26;;;;;;;9.73;7.03;;;;;;;;;;5068161;28;21672;-57
2022/06/04 01:50:57;;;;;;;9.73;6.88;;;;;;;;;;5064204;28;20040;-57
2022/06/04 01:53:31;;;;;;;8.65;6.75;;;;;;;;;;5067217;28;20039;-57
2022/06/04 01:56:01;;;;;;;8.63;6.68;;;;;;;;;;5066594;28;20036;-57
2022/06/04 01:58:41;;;;;;;13.30;7.47;;;;;;;;;;5064431;28;20039;-57
2022/06/04 02:01:14;;;;;;;9.60;6.55;;;;;;;;;;5067457;28;20032;-57
2022/06/04 02:03:50;;;;;;;11.70;6.90;;;;;;;;;;5061288;28;20025;-57
2022/06/04 02:09:46;;;;;;;9.13;7.13;;;;;;;;;;5066875;28;20063;-57
2022/06/04 02:12:12;;;;;;;9.57;7.18;;;;;;;;;;5057196;28;20402;-57
2022/06/04 02:14:40;;;;;;;8.27;7.20;;;;;;;;;;5062664;28;20035;-57
2022/06/04 02:17:08;;;;;;;10.98;7.22;;;;;;;;;;5062482;28;20111;-57
2022/06/04 02:19:34;;;;;;;12.20;7.28;;;;;;;;;;5069717;28;20035;-57
2022/06/04 02:21:59;;;;;;;8.18;7.13;;;;;;;;;;5061188;28;20024;-57
2022/06/04 02:24:25;;;;;;;10.45;6.63;;;;;;;;;;5059706;28;20150;-57
2022/06/04 02:26:51;;;;;;;9.27;6.70;;;;;;;;;;5060118;28;20036;-57
2022/06/04 02:29:19;;;;;;;10.45;7.45;;;;;;;;;;5062870;28;20028;-59
2022/06/04 02:32:02;;;;;;;8.82;7.00;;;;;;;;;;5065221;28;20105;-57
2022/06/04 02:34:44;;;;;;;11.07;7.82;;;;;;;;;;5067876;28;20399;-58
2022/06/04 02:37:19;;;;;;;10.10;7.28;;;;;;;;;;5060872;28;20094;-57
2022/06/04 02:40:00;;;;;;;10.45;7.22;;;;;;;;;;5066851;28;20119;-57
2022/06/04 02:42:26;;;;;;;8.70;6.22;;;;;;;;;;5074401;28;20047;-57
2022/06/04 02:44:56;;;;;;;12.63;7.43;;;;;;;;;;5069943;28;20060;-58
2022/06/04 02:47:53;;;;;;;10.70;7.25;;;;;;;;;;5070885;28;20376;-57
2022/06/04 02:50:37;;;;;;;10.63;7.22;;;;;;;;;;5074682;28;20046;-57
2022/06/04 02:53:04;;;;;;;10.05;6.90;;;;;;;;;;5071668;28;20119;-57
2022/06/04 02:55:35;;;;;;;9.90;7.07;;;;;;;;;;5066516;28;20020;-57
2022/06/04 02:58:06;;;;;;;12.80;7.13;;;;;;;;;;5071426;28;20070;-57
2022/06/04 03:00:32;;;;;;;10.45;7.10;;;;;;;;;;5065967;28;20107;-57
2022/06/04 03:02:57;;;;;;;7.95;6.75;;;;;;;;;;5064812;28;20024;-57
2022/06/04 03:05:26;;;;;;;11.70;6.97;;;;;;;;;;5065155;28;20503;-57
2022/06/04 03:07:56;;;;;;;14.82;7.18;;;;;;;;;;5064658;28;20064;-56
2022/06/04 03:10:26;;;;;;;10.20;7.18;;;;;;;;;;5068951;28;20112;-57
2022/06/04 03:12:52;;;;;;;10.48;6.97;;;;;;;;;;5062779;28;20070;-57
2022/06/04 03:15:17;;;;;;;10.93;7.15;;;;;;;;;;5066034;28;20028;-57
2022/06/04 03:17:45;;;;;;;10.32;7.97;;;;;;;;;;5072476;28;20107;-57
2022/06/04 03:20:16;;;;;;;11.23;7.60;;;;;;;;;;5060829;28;20061;-57
2022/06/04 03:22:42;;;;;;;8.02;6.90;;;;;;;;;;5060070;28;20030;-57
2022/06/04 03:25:08;;;;;;;12.13;7.47;;;;;;;;;;5066830;28;20028;-57
2022/06/04 03:27:33;;;;;;;9.25;6.95;;;;;;;;;;5065860;28;20025;-57
2022/06/04 03:29:58;;;;;;;9.15;7.13;;;;;;;;;;5061623;28;20538;-56
2022/06/04 03:32:24;;;;;;;9.38;6.68;;;;;;;;;;5067915;28;20376;-57
2022/06/04 03:34:50;;;;;;;8.70;6.88;;;;;;;;;;5064466;28;20483;-57
2022/06/04 03:37:16;;;;;;;8.05;6.40;;;;;;;;;;5069082;28;20462;-57
2022/06/04 03:39:41;;;;;;;9.48;7.63;;;;;;;;;;5064475;28;20043;-57
2022/06/04 03:42:07;;;;;;;10.02;7.50;;;;;;;;;;5063288;28;20063;-56
2022/06/04 03:44:33;;;;;;;11.85;7.38;;;;;;;;;;5065742;28;20061;-57
2022/06/04 03:46:58;;;;;;;9.82;7.30;;;;;;;;;;5071871;28;20029;-57
2022/06/04 03:49:23;;;;;;;10.90;7.70;;;;;;;;;;5074192;28;20651;-56
2022/06/04 03:51:49;;;;;;;10.98;8.02;;;;;;;;;;5068762;28;20020;-56
2022/06/04 03:54:14;;;;;;;11.30;8.13;;;;;;;;;;5064353;28;20039;-57
2022/06/04 03:56:40;;;;;;;9.93;7.32;;;;;;;;;;5067338;28;20078;-57
2022/06/04 03:59:06;;;;;;;10.07;7.57;;;;;;;;;;5068894;28;20487;-57
2022/06/04 04:01:32;;;;;;;10.65;7.53;;;;;;;;;;5066383;28;20037;-57
2022/06/04 04:03:59;;;;;;;10.25;7.88;;;;;;;;;;5063060;28;20031;-57
2022/06/04 04:06:30;;;;;;;11.63;7.85;;;;;;;;;;5067728;28;20048;-57
2022/06/04 04:08:56;;;;;;;9.75;7.10;;;;;;;;;;5065857;28;20107;-56
2022/06/04 04:11:25;;;;;;;10.43;7.63;;;;;;;;;;5058752;28;20539;-57
2022/06/04 04:13:51;;;;;;;9.95;7.47;;;;;;;;;;5059593;28;20086;-57
2022/06/04 04:16:18;;;;;;;12.77;7.88;;;;;;;;;;5062710;28;20029;-57
2022/06/04 04:18:44;;;;;;;10.25;7.72;;;;;;;;;;5062934;28;20029;-57
2022/06/04 04:21:16;;;;;;;9.75;7.93;;;;;;;;;;5060952;28;20739;-56
2022/06/04 04:23:42;;;;;;;14.27;8.73;;;;;;;;;;5066736;28;20033;-57
2022/06/04 04:26:10;;;;;;;14.65;8.80;;;;;;;;;;5062106;28;20445;-57
2022/06/04 04:28:36;;;;;;;10.68;8.35;;;;;;;;;;5064954;28;20024;-57
2022/06/04 04:31:02;;;;;;;10.50;7.38;;;;;;;;;;5065472;28;20530;-57
2022/06/04 04:33:28;;;;;;;15.63;7.80;;;;;;;;;;5062998;28;20029;-57
2022/06/04 04:35:54;;;;;;;10.63;7.60;;;;;;;;;;5065650;28;20483;-57
2022/06/04 04:38:21;;;;;;;8.85;7.43;;;;;;;;;;5072156;28;20035;-58
2022/06/04 04:40:47;;;;;;;10.05;7.75;;;;;;;;;;5067426;28;20063;-56
2022/06/04 04:43:13;;;;;;;10.20;7.88;;;;;;;;;;5066823;28;20162;-57
2022/06/04 04:45:38;;;;;;;12.23;8.18;;;;;;;;;;5069133;28;20115;-57
2022/06/04 04:48:05;;;;;;;14.23;8.50;;;;;;;;;;5072359;28;20119;-57
2022/06/04 04:50:33;;;;;;;12.00;8.20;;;;;;;;;;5071498;28;20046;-56
2022/06/04 04:53:04;;;;;;;10.40;7.72;;;;;;;;;;5070489;28;20056;-58
2022/06/04 04:55:31;;;;;;;10.90;8.38;;;;;;;;;;5062347;28;20093;-58
2022/06/04 04:57:56;;;;;;;11.90;9.10;;;;;;;;;;5068632;28;20190;-58
2022/06/04 05:00:22;;;;;;;11.98;8.65;;;;;;;;;;5067930;28;20123;-58
2022/06/04 05:02:47;;;;;;;12.52;9.30;;;;;;;;;;5064929;28;20031;-57
2022/06/04 05:05:13;;;;;;;14.50;9.40;;;;;;;;;;5058650;28;20024;-58
2022/06/04 05:07:41;;;;;;;12.68;9.18;;;;;;;;;;5065090;28;20021;-57
2022/06/04 05:10:08;;;;;;;12.63;9.02;;;;;;;;;;5064533;28;20035;-58
2022/06/04 05:12:33;;;;;;;12.10;8.63;;;;;;;;;;5064652;28;20025;-58
2022/06/04 05:14:59;;;;;;;13.57;8.38;;;;;;;;;;5064944;28;20427;-58
2022/06/04 05:17:25;;;;;;;12.75;9.07;;;;;;;;;;5067970;28;20020;-58
2022/06/04 05:19:50;;;;;;;13.88;8.70;;;;;;;;;;5065791;28;20028;-58
2022/06/04 05:22:15;;;;;;;9.77;8.32;;;;;;;;;;5055827;28;20065;-58
2022/06/04 05:24:43;;;;;;;12.45;8.60;;;;;;;;;;5058688;28;20024;-58
2022/06/04 05:27:09;;;;;;;13.07;9.32;;;;;;;;;;5057507;28;20037;-58
2022/06/04 05:29:36;;;;;;;13.63;9.32;;;;;;;;;;5058724;28;20020;-58
2022/06/04 05:32:02;;;;;;;9.45;7.97;;;;;;;;;;5058863;28;20028;-58
2022/06/04 05:34:28;;;;;;;11.38;8.57;;;;;;;;;;5063455;28;20033;-58
2022/06/04 05:36:54;;;;;;;15.52;10.80;;;;;;;;;;5062369;28;20020;-58
2022/06/04 05:39:21;;;;;;;13.20;9.68;;;;;;;;;;5062746;28;20036;-58
2022/06/04 05:41:47;;;;;;;13.75;9.05;;;;;;;;;;5061896;28;20123;-58
2022/06/04 05:44:13;;;;;;;9.55;8.10;;;;;;;;;;5068552;28;20721;-59
2022/06/04 05:46:42;;;;;;;10.25;8.27;;;;;;;;;;5069270;28;20028;-58
2022/06/04 05:49:11;;;;;;;11.00;8.52;;;;;;;;;;5068428;28;20451;-58
2022/06/04 05:51:38;;;;;;;14.27;9.63;;;;;;;;;;5065257;28;20047;-58
2022/06/04 05:54:04;;;;;;;10.52;7.55;;;;;;;;;;5062216;28;20031;-58
2022/06/04 05:56:33;;;;;;;8.95;6.88;;;;;;;;;;5063861;28;20021;-58
2022/06/04 05:59:02;;;;;;;9.27;6.88;;;;;;;;;;5069472;28;20457;-57
2022/06/04 06:01:33;;;;;;;9.63;7.25;;;;;;;;;;5059909;28;20083;-58
2022/06/04 06:03:59;;;;;;;15.38;7.63;;;;;;;;;;5064845;28;20063;-58
2022/06/04 06:06:29;;;;;;;11.38;7.47;;;;;;;;;;5055453;28;20051;-58
2022/06/04 06:08:56;;;;;;;9.32;6.82;;;;;;;;;;5067643;28;20046;-58
2022/06/04 06:11:22;;;;;;;10.40;7.35;;;;;;;;;;5056294;28;20115;-58
2022/06/04 06:13:48;;;;;;;10.65;7.35;;;;;;;;;;5064682;28;20052;-58
2022/06/04 06:16:17;;;;;;;10.60;7.25;;;;;;;;;;5063456;28;20400;-58
2022/06/04 06:18:43;;;;;;;10.40;7.25;;;;;;;;;;5057026;28;20564;-57
2022/06/04 06:21:13;;;;;;;10.30;7.30;;;;;;;;;;5061596;28;20033;-58
2022/06/04 06:23:39;;;;;;;13.98;8.23;;;;;;;;;;5053972;28;20452;-58
2022/06/04 06:26:11;;;;;;;14.90;8.35;;;;;;;;;;5061740;28;20067;-58
2022/06/04 06:28:39;;;;;;;15.45;8.95;;;;;;;;;;5063868;28;20483;-58
2022/06/04 06:31:09;;;;;;;13.43;8.35;;;;;;;;;;5061641;28;20036;-58
2022/06/04 06:33:35;;;;;;;14.85;8.38;;;;;;;;;;5067202;28;20479;-58
2022/06/04 06:36:03;;;;;;;15.52;9.02;;;;;;;;;;5059023;28;20035;-59
2022/06/04 06:38:29;;;;;;;9.50;7.68;;;;;;;;;;5064607;28;20035;-59
2022/06/04 06:40:56;;;;;;;11.02;8.18;;;;;;;;;;5062301;28;20025;-59
2022/06/04 06:43:23;;;;;;;11.50;7.50;;;;;;;;;;5068887;28;20031;-59
2022/06/04 06:45:49;;;;;;;12.77;7.65;;;;;;;;;;5067174;28;20563;-58
2022/06/04 06:48:15;;;;;;;7.82;6.82;;;;;;;;;;5071238;28;20407;-59
2022/06/04 06:50:42;;;;;;;12.77;6.72;;;;;;;;;;5062681;28;20017;-59
2022/06/04 06:53:09;;;;;;;8.82;7.10;;;;;;;;;;5061072;28;20028;-59
2022/06/04 06:55:34;;;;;;;9.75;7.47;;;;;;;;;;5067487;28;20078;-58
2022/06/04 06:57:59;;;;;;;13.38;8.23;;;;;;;;;;5067311;28;20111;-59
2022/06/04 07:00:25;;;;;;;11.00;6.95;;;;;;;;;;5066175;28;20127;-59
2022/06/04 07:02:50;;;;;;;8.80;6.47;;;;;;;;;;5067680;28;20028;-59
2022/06/04 07:05:16;;;;;;;9.35;5.95;;;;;;;;;;5064904;28;20209;-58
2022/06/04 07:07:42;;;;;;;9.50;6.10;;;;;;;;;;5066007;28;20555;-59
2022/06/04 07:10:09;;;;;;;7.03;5.50;;;;;;;;;;5064165;28;20156;-59
2022/06/04 07:12:35;;;;;;;7.32;6.05;;;;;;;;;;5064865;28;20027;-59
2022/06/04 07:15:00;;;;;;;10.45;5.85;;;;;;;;;;5063586;28;20029;-59
2022/06/04 07:17:26;;;;;;;13.95;5.55;;;;;;;;;;5067397;28;20013;-58
2022/06/04 07:19:51;;;;;;;50.63;33.42;;;;;;;;;;5061198;28;20064;-60
2022/06/04 07:22:17;;;;;;;32.28;21.80;;;;;;;;;;5064697;28;20116;-60
2022/06/04 07:24:42;;;;;;;19.23;8.93;;;;;;;;;;5064234;28;20060;-59
2022/06/04 07:27:08;;;;;;;10.52;6.75;;;;;;;;;;5068879;28;20146;-60
2022/06/04 07:29:34;;;;;;;13.77;7.70;;;;;;;;;;5071419;28;20028;-61
2022/06/04 07:32:00;;;;;;;12.38;8.05;;;;;;;;;;5070375;28;20029;-61
2022/06/04 07:34:25;;;;;;;12.18;8.32;;;;;;;;;;5064321;28;20035;-59
2022/06/04 07:36:52;;;;;;;10.40;8.30;;;;;;;;;;5062514;28;20054;-60
2022/06/04 07:39:18;;;;;;;13.13;9.23;;;;;;;;;;5069223;28;20028;-59
2022/06/04 07:41:46;;;;;;;13.65;9.35;;;;;;;;;;5063488;28;20040;-59
2022/06/04 07:44:14;;;;;;;15.70;9.93;;;;;;;;;;5063717;28;20033;-60
2022/06/04 07:46:40;;;;;;;14.75;10.40;;;;;;;;;;5070279;28;20283;-59
2022/06/04 07:49:07;;;;;;;12.90;9.45;;;;;;;;;;5072670;28;20054;-60
2022/06/04 07:51:33;;;;;;;13.60;9.60;;;;;;;;;;5067865;28;20033;-60
2022/06/04 07:53:59;;;;;;;12.35;8.82;;;;;;;;;;5067589;28;20032;-60
2022/06/04 07:56:25;;;;;;;14.98;9.18;;;;;;;;;;5067460;28;20020;-60
2022/06/04 07:58:51;;;;;;;13.63;9.98;;;;;;;;;;5069057;28;20039;-61
2022/06/04 08:01:18;;;;;;;14.68;9.40;;;;;;;;;;5065950;28;20032;-59
2022/06/04 08:03:46;;;;;;;11.15;8.63;;;;;;;;;;5062534;28;20568;-60
2022/06/04 08:06:13;;;;;;;18.27;11.13;;;;;;;;;;5063853;28;20028;-59
2022/06/04 08:08:39;;;;;;;13.13;9.68;;;;;;;;;;5057747;28;20036;-60
2022/06/04 08:11:30;;;;;;;18.27;11.20;;;;;;;;;;5066460;28;20112;-61
2022/06/04 08:13:51;;;;;;;14.95;11.05;;;;;;;;;;5062870;28;20032;-61
2022/06/04 08:16:18;;;;;;;13.80;10.98;;;;;;;;;;5060098;28;20025;-60
2022/06/04 08:18:43;;;;;;;19.77;10.73;;;;;;;;;;5064502;28;20422;-60
2022/06/04 08:21:09;;;;;;;22.83;10.32;;;;;;;;;;5061290;28;20025;-60
2022/06/04 08:23:35;;;;;;;13.07;9.60;;;;;;;;;;5055020;28;20031;-59
2022/06/04 08:26:01;;;;;;;16.13;10.85;;;;;;;;;;5058886;28;20043;-60
2022/06/04 08:28:27;;;;;;;15.52;10.05;;;;;;;;;;5066737;28;20540;-59
2022/06/04 08:31:10;;;;;;;11.38;7.90;;;;;;;;;;5061123;28;20079;-60
2022/06/04 08:33:36;;;;;;;8.95;7.30;;;;;;;;;;5064039;28;20589;-60
2022/06/04 08:36:06;;;;;;;8.35;7.15;;;;;;;;;;5065900;28;20055;-60
2022/06/04 08:38:33;;;;;;;10.32;6.40;;;;;;;;;;5068842;28;20028;-60
2022/06/04 08:41:00;;;;;;;8.60;7.03;;;;;;;;;;5067299;28;20395;-61
2022/06/04 08:43:38;;;;;;;11.10;6.32;;;;;;;;;;5064537;28;20024;-60
2022/06/04 08:46:12;;;;;;;8.90;7.00;;;;;;;;;;5067012;28;20029;-61
2022/06/04 08:48:38;;;;;;;9.63;6.78;;;;;;;;;;5066667;28;20028;-59
2022/06/04 08:51:10;;;;;;;11.07;7.25;;;;;;;;;;5068310;28;20031;-59
2022/06/04 08:53:36;;;;;;;9.00;6.53;;;;;;;;;;5074552;28;20032;-61
2022/06/04 08:59:16;;;;;;;8.45;6.30;;;;;;;;;;5069112;28;20043;-61
2022/06/04 09:01:58;;;;;;;8.13;6.55;;;;;;;;;;5066004;28;20045;-62
2022/06/04 09:04:52;;;;;;;9.13;6.78;;;;;;;;;;5067336;28;20491;-62
2022/06/04 09:07:28;;;;;;;11.75;7.90;;;;;;;;;;5069278;28;20033;-59
2022/06/04 09:10:05;;;;;;;25.20;13.65;;;;;;;;;;5065988;28;20036;-62
2022/06/04 09:12:55;;;;;;;17.50;11.07;;;;;;;;;;5065215;28;20043;-59
2022/06/04 09:15:29;;;;;;;;;;;;;;;;;;5063436;28;20059;-60
2022/06/04 09:17:57;;;;;;;12.88;8.35;;;;;;;;;;5066472;28;19916;-59
2022/06/04 09:21:01;;;;;;;10.77;7.40;;;;;;;;;;5062888;28;20522;-61
2022/06/04 09:23:36;;;;;;;14.65;8.65;;;;;;;;;;5054677;28;20365;-59
2022/06/04 09:26:13;;;;;;;9.98;6.82;;;;;;;;;;5059724;28;20503;-59
2022/06/04 09:28:41;;;;;;;10.68;7.20;;;;;;;;;;5051787;28;20048;-59
2022/06/04 09:31:25;;;;;;;12.17;6.87;;;;;;;;;;5058279;28;20127;-59
2022/06/04 09:34:01;;;;;;;10.68;7.25;;;;;;;;;;5060803;28;20066;-59
2022/06/04 09:36:32;;;;;;;10.02;7.38;;;;;;;;;;5068105;28;20028;-59
2022/06/04 09:38:59;;;;;;;8.90;7.25;;;;;;;;;;5064271;28;20031;-58
2022/06/04 09:41:27;;;;;;;11.90;7.13;;;;;;;;;;5065817;28;20028;-60
2022/06/04 09:44:13;;;;;;;11.05;7.32;;;;;;;;;;5061120;28;20056;-59
2022/06/04 09:46:43;;;;;;;11.65;7.63;;;;;;;;;;5065807;28;20033;-59
2022/06/04 09:49:23;;;;;;;12.82;7.88;;;;;;;;;;5069175;28;20098;-60
2022/06/04 09:51:49;;;;;;;11.10;8.00;;;;;;;;;;5066754;28;20028;-58
2022/06/04 09:54:24;;;;;;;11.88;8.07;;;;;;;;;;5066645;28;20318;-61
2022/06/04 09:56:54;;;;;;;10.43;7.90;;;;;;;;;;5066091;28;20028;-59
2022/06/04 09:59:28;;;;;;;13.15;7.30;;;;;;;;;;5063402;28;20027;-59
2022/06/04 10:02:12;;;;;;;10.95;7.55;;;;;;;;;;5058930;28;20032;-59
2022/06/04 10:04:47;;;;;;;11.38;7.53;;;;;;;;;;5062920;28;20032;-60
2022/06/04 10:07:17;;;;;;;10.95;7.68;;;;;;;;;;5061605;28;20076;-59
2022/06/04 10:09:57;;;;;;;12.25;8.35;;;;;;;;;;5062799;28;20414;-60
2022/06/04 10:13:42;;;;;;;;;;;;;;;;;;5066872;28;20025;-59
2022/06/04 10:15:46;;;;;;;11.00;7.57;;;;;;;;;;5055732;28;20079;-59
2022/06/04 10:18:32;;;;;;;12.35;7.65;;;;;;;;;;5056695;28;20504;-59
2022/06/04 10:21:04;;;;;;;8.10;6.97;;;;;;;;;;5053030;28;20054;-60
2022/06/04 10:23:40;;;;;;;10.57;6.75;;;;;;;;;;5059908;28;20029;-59
2022/06/04 10:26:42;;;;;;;11.45;7.60;;;;;;;;;;5059275;28;20081;-59
2022/06/04 10:29:37;;;;;;;12.15;7.63;;;;;;;;;;5061722;28;20048;-60
2022/06/04 10:32:31;;;;;;;9.95;6.93;;;;;;;;;;5058470;28;20044;-59
2022/06/04 10:35:18;;;;;;;9.05;7.20;;;;;;;;;;5053747;28;20438;-59
2022/06/04 10:38:03;;;;;;;8.55;7.35;;;;;;;;;;5062951;28;20527;-59
2022/06/04 10:41:04;;;;;;;9.65;7.30;;;;;;;;;;5065624;28;20039;-59
2022/06/04 10:43:44;;;;;;;10.80;7.88;;;;;;;;;;5063941;28;20083;-61
2022/06/04 10:46:28;;;;;;;10.00;7.43;;;;;;;;;;5068152;28;20029;-59
2022/06/04 10:49:02;;;;;;;11.18;7.10;;;;;;;;;;5068289;28;20564;-62
2022/06/04 10:51:53;;;;;;;10.85;6.72;;;;;;;;;;5062014;28;20029;-62
2022/06/04 10:55:15;;;;;;;8.90;7.38;;;;;;;;;;5065170;28;20376;-60
2022/06/04 10:57:54;;;;;;;12.30;7.47;;;;;;;;;;5026654;28;20044;-59
2022/06/04 11:00:29;;;;;;;8.63;7.32;;;;;;;;;;5066959;28;20035;-62
2022/06/04 11:03:05;;;;;;;10.07;7.20;;;;;;;;;;5060306;28;20495;-59
2022/06/04 11:05:43;;;;;;;10.98;7.38;;;;;;;;;;5063651;28;20111;-60
2022/06/04 11:08:20;;;;;;;8.60;7.38;;;;;;;;;;5067111;28;20039;-60
2022/06/04 11:11:12;;;;;;;10.55;7.25;;;;;;;;;;5062193;28;20024;-62
2022/06/04 11:13:45;;;;;;;11.90;8.00;;;;;;;;;;5065295;28;20040;-61
2022/06/04 11:16:18;;;;;;;14.82;7.90;;;;;;;;;;5066261;28;20028;-60
2022/06/04 11:18:50;;;;;;;10.40;8.27;;;;;;;;;;5058180;28;20094;-60
2022/06/04 11:21:31;;;;;;;12.52;8.60;;;;;;;;;;5060888;28;20499;-61
2022/06/04 11:24:05;;;;;;;9.77;8.15;;;;;;;;;;5067831;28;20036;-62
2022/06/04 11:26:48;;;;;;;12.35;7.57;;;;;;;;;;5065758;28;20420;-59
2022/06/04 11:29:14;;;;;;;9.13;7.53;;;;;;;;;;5064358;28;20513;-60
2022/06/04 11:32:17;;;;;;;10.27;7.80;;;;;;;;;;5069397;28;20437;-60
2022/06/04 11:35:04;;;;;;;9.27;7.38;;;;;;;;;;5066012;28;20017;-60
2022/06/04 11:37:48;;;;;;;11.45;7.00;;;;;;;;;;5063062;28;20036;-59
2022/06/04 11:40:34;;;;;;;12.35;7.80;;;;;;;;;;5066937;28;20029;-60
2022/06/04 11:43:05;;;;;;;8.77;7.75;;;;;;;;;;5068604;28;20099;-63
2022/06/04 11:46:00;;;;;;;13.18;9.07;;;;;;;;;;5067301;28;20028;-60
2022/06/04 11:48:46;;;;;;;12.65;9.73;;;;;;;;;;5068297;28;20071;-60
2022/06/04 11:51:27;;;;;;;12.23;9.77;;;;;;;;;;5069012;28;20051;-60
2022/06/04 11:54:01;;;;;;;11.80;10.60;;;;;;;;;;5067721;28;20024;-61
2022/06/04 11:57:01;;;;;;;17.52;14.40;;;;;;;;;;5068908;28;20028;-61
2022/06/04 11:59:38;;;;;;;18.55;14.00;;;;;;;;;;5067993;28;20024;-60
2022/06/04 12:02:35;;;;;;;21.15;15.05;;;;;;;;;;5068289;28;20415;-63
2022/06/04 12:05:19;;;;;;;22.00;15.07;;;;;;;;;;5063077;28;20047;-60
2022/06/04 12:07:51;;;;;;;16.20;14.35;;;;;;;;;;5065695;28;20036;-60
2022/06/04 12:11:01;;;;;;;19.73;15.20;;;;;;;;;;5066146;28;20024;-60
2022/06/04 12:13:45;;;;;;;17.85;14.68;;;;;;;;;;5064275;28;20025;-62
2022/06/04 12:16:19;;;;;;;22.23;16.58;;;;;;;;;;5060855;28;20024;-60
2022/06/04 12:18:53;;;;;;;18.13;15.38;;;;;;;;;;5061417;28;20058;-60
2022/06/04 12:24:32;;;;;;;13.82;12.27;;;;;;;;;;5066367;28;20512;-59
2022/06/04 12:27:22;;;;;;;14.63;12.88;;;;;;;;;;5065002;28;20040;-59
2022/06/04 12:29:53;;;;;;;17.80;14.10;;;;;;;;;;5063383;28;20047;-59
2022/06/04 12:32:40;;;;;;;18.92;13.93;;;;;;;;;;5065194;28;20063;-59
2022/06/04 12:35:19;;;;;;;14.63;12.20;;;;;;;;;;5067906;28;20028;-59
2022/06/04 12:37:52;;;;;;;20.27;13.23;;;;;;;;;;5067726;28;20081;-59
2022/06/04 12:40:22;;;;;;;15.40;12.18;;;;;;;;;;5065820;28;20155;-59
2022/06/04 12:43:06;;;;;;;13.27;10.80;;;;;;;;;;5065391;28;20020;-60
2022/06/04 12:45:40;;;;;;;15.98;11.93;;;;;;;;;;5066002;28;20519;-60
2022/06/04 12:48:37;;;;;;;19.55;12.85;;;;;;;;;;5069983;28;20032;-59
2022/06/04 12:51:15;;;;;;;15.02;11.93;;;;;;;;;;5063538;28;20488;-60
2022/06/04 12:53:55;;;;;;;16.40;13.60;;;;;;;;;;5065532;28;20068;-60
2022/06/04 12:56:34;;;;;;;16.60;13.05;;;;;;;;;;5062722;28;20335;-60
2022/06/04 12:59:01;;;;;;;15.23;13.07;;;;;;;;;;5063110;28;20047;-60
2022/06/04 13:01:29;;;;;;;14.18;12.68;;;;;;;;;;5068868;28;20024;-61
2022/06/04 13:04:10;;;;;;;17.88;13.07;;;;;;;;;;5067483;28;20032;-61
2022/06/04 13:07:14;;;;;;;19.35;13.73;;;;;;;;;;5065606;28;20035;-60
2022/06/04 13:09:44;;;;;;;15.32;13.40;;;;;;;;;;5065995;28;20032;-61
2022/06/04 13:12:48;;;;;;;16.77;13.85;;;;;;;;;;5059411;28;20029;-62
2022/06/04 13:15:28;;;;;;;19.77;16.70;;;;;;;;;;5062871;28;20130;-60
2022/06/04 13:17:54;;;;;;;19.75;15.23;;;;;;;;;;5062950;28;20034;-61
2022/06/04 13:20:25;;;;;;;15.75;13.02;;;;;;;;;;5066448;28;20492;-61
2022/06/04 13:22:57;;;;;;;18.08;12.70;;;;;;;;;;5062291;28;20126;-63
2022/06/04 13:25:33;;;;;;;14.30;12.60;;;;;;;;;;5067454;28;20052;-61
2022/06/04 13:27:59;;;;;;;14.45;12.05;;;;;;;;;;5067713;28;20031;-59
2022/06/04 13:30:28;;;;;;;19.17;13.45;;;;;;;;;;5067619;28;20035;-60
2022/06/04 13:33:14;;;;;;;15.25;11.93;;;;;;;;;;5062981;28;20105;-62
2022/06/04 13:35:47;;;;;;;14.35;12.13;;;;;;;;;;5062900;28;20025;-61
2022/06/04 13:38:22;;;;;;;13.30;11.75;;;;;;;;;;5066479;28;20029;-61
2022/06/04 13:40:47;;;;;;;15.88;12.88;;;;;;;;;;5065755;28;20396;-61
2022/06/04 13:43:13;;;;;;;18.08;12.82;;;;;;;;;;5070034;28;20032;-60
2022/06/04 13:45:40;;;;;;;13.73;12.05;;;;;;;;;;5066032;28;20024;-58
2022/06/04 13:48:24;;;;;;;13.02;10.75;;;;;;;;;;5065936;28;20260;-57
2022/06/04 13:50:54;;;;;;;13.25;10.85;;;;;;;;;;5065687;28;20079;-58
2022/06/04 13:53:27;;;;;;;12.65;11.45;;;;;;;;;;5065203;28;20119;-58
2022/06/04 13:55:57;;;;;;;12.00;9.90;;;;;;;;;;5061936;28;20028;-58
2022/06/04 13:58:32;;;;;;;12.68;10.57;;;;;;;;;;5065580;28;20459;-57
2022/06/04 14:01:30;;;;;;;11.02;9.38;;;;;;;;;;5065852;28;20499;-57
2022/06/04 14:05:43;;;;;;;12.25;10.73;;;;;;;;;;5066524;28;20526;-58
2022/06/04 14:06:43;;;;;;;15.23;10.38;;;;;;;;;;5062326;28;20512;-58
2022/06/04 14:09:09;;;;;;;12.57;10.60;;;;;;;;;;5064103;28;20029;-58
2022/06/04 14:11:41;;;;;;;11.18;9.93;;;;;;;;;;5060980;28;20035;-58
2022/06/04 14:14:13;;;;;;;13.45;10.43;;;;;;;;;;5062321;28;20029;-59
2022/06/04 14:17:10;;;;;;;15.15;9.75;;;;;;;;;;5056843;28;20496;-58
2022/06/04 14:19:38;;;;;;;10.23;8.55;;;;;;;;;;5055501;28;20032;-58
2022/06/04 14:22:27;;;;;;;10.93;8.63;;;;;;;;;;5063835;28;20401;-58
2022/06/04 14:25:19;;;;;;;10.80;8.63;;;;;;;;;;5065947;28;20550;-57
2022/06/04 14:28:21;;;;;;;8.88;6.93;;;;;;;;;;5058039;28;20423;-58
2022/06/04 14:31:07;;;;;;;10.57;7.57;;;;;;;;;;5066753;28;20391;-57
2022/06/04 14:33:33;;;;;;;6.22;5.63;;;;;;;;;;5068016;28;20434;-58
2022/06/04 14:36:04;;;;;;;8.85;5.55;;;;;;;;;;5065161;28;20559;-58
2022/06/04 14:38:32;;;;;;;8.02;5.35;;;;;;;;;;5067786;28;20048;-58
2022/06/04 14:41:12;;;;;;;7.95;5.70;;;;;;;;;;5065110;28;20090;-58
2022/06/04 14:44:04;;;;;;;7.03;5.35;;;;;;;;;;5066058;28;20111;-57
2022/06/04 14:46:59;;;;;;;9.63;5.70;;;;;;;;;;5066746;28;20036;-57
2022/06/04 14:49:42;;;;;;;15.88;5.80;;;;;;;;;;5069450;28;20025;-58
2022/06/04 14:52:19;;;;;;;11.38;6.82;;;;;;;;;;5064626;28;20031;-57
2022/06/04 14:54:47;;;;;;;11.75;6.90;;;;;;;;;;5064679;28;20066;-59
2022/06/04 14:57:41;;;;;;;8.73;6.10;;;;;;;;;;5063948;28;20027;-57
2022/06/04 15:00:35;;;;;;;8.57;5.50;;;;;;;;;;5067998;28;20032;-57
2022/06/04 15:03:12;;;;;;;5.97;5.40;;;;;;;;;;5055357;28;20526;-57
2022/06/04 15:06:07;;;;;;;7.45;5.68;;;;;;;;;;5068395;28;20526;-58
2022/06/04 15:08:32;;;;;;;7.32;5.30;;;;;;;;;;5065473;28;20125;-57
2022/06/04 15:11:35;;;;;;;6.85;4.55;;;;;;;;;;5064700;28;20659;-58
2022/06/04 15:14:18;;;;;;;5.95;5.35;;;;;;;;;;5058776;28;20024;-58
2022/06/04 15:16:55;;;;;;;7.10;5.22;;;;;;;;;;5064099;28;20051;-59
2022/06/04 15:19:37;;;;;;;7.20;6.20;;;;;;;;;;5068728;28;20036;-59
2022/06/04 15:22:41;;;;;;;7.25;6.10;;;;;;;;;;5065194;28;20407;-57
2022/06/04 15:25:06;;;;;;;6.88;6.03;;;;;;;;;;5066292;28;20117;-57
2022/06/04 15:27:39;;;;;;;7.20;6.32;;;;;;;;;;5071289;28;20020;-57